Time;durP1;ratioP1;P1;durP2;ratioP2;P2;SDS_P1;SDS_P2;PMS_P1;PMS_P2;Temp;Humidity;BMP_temperature;BMP_pressure;BME280_temperature;BME280_humidity;BME280_pressure;Samples;Min_cycle;Max_cycle;Signal;HPM_P1;HPM_P2
2022/03/19 00:01:58;;;;;;;219.65;76.22;;;;;;;-4.10;63.07;102213.71;1703288;83;21008;-70
2022/03/19 00:04:27;;;;;;;212.17;76.72;;;;;;;-4.11;63.40;102215.22;1709448;83;21624;-69
2022/03/19 00:06:55;;;;;;;205.18;73.80;;;;;;;-4.13;63.24;102217.21;1706254;83;21687;-69
2022/03/19 00:09:25;;;;;;;175.50;64.32;;;;;;;-4.14;63.30;102219.05;1704966;83;21577;-70
2022/03/19 00:11:54;;;;;;;181.50;66.45;;;;;;;-4.20;63.46;102220.53;1697616;83;21379;-69
2022/03/19 00:14:22;;;;;;;185.93;65.25;;;;;;;-4.24;63.67;102215.59;1702393;82;21045;-70
2022/03/19 00:16:49;;;;;;;186.47;69.85;;;;;;;-4.26;63.70;102214.40;1704933;82;21100;-71
2022/03/19 00:19:15;;;;;;;181.82;67.70;;;;;;;-4.28;63.97;102211.86;1698791;82;21028;-68
2022/03/19 00:21:43;;;;;;;184.50;65.72;;;;;;;-4.28;63.97;102213.70;1693576;83;20994;-70
2022/03/19 00:24:11;;;;;;;186.10;70.00;;;;;;;-4.30;63.88;102206.30;1707004;81;21799;-70
2022/03/19 00:26:38;;;;;;;182.57;68.30;;;;;;;-4.28;63.83;102209.66;1701546;83;20973;-69
2022/03/19 00:29:08;;;;;;;175.05;66.60;;;;;;;-4.33;63.81;102207.44;1696735;83;20978;-70
2022/03/19 00:31:41;;;;;;;176.65;66.62;;;;;;;-4.42;63.89;102206.52;1712654;82;21068;-69
2022/03/19 00:34:08;;;;;;;178.35;67.55;;;;;;;-4.44;64.02;102200.46;1709602;82;20930;-69
2022/03/19 00:36:36;;;;;;;184.75;65.67;;;;;;;-4.46;64.24;102190.83;1702768;82;21056;-70
2022/03/19 00:39:03;;;;;;;171.72;63.65;;;;;;;-4.50;64.46;102187.59;1709640;82;21100;-69
2022/03/19 00:41:30;;;;;;;182.93;67.25;;;;;;;-4.49;64.54;102182.58;1738525;81;21063;-69
2022/03/19 00:43:57;;;;;;;169.28;67.37;;;;;;;-4.48;64.56;102184.25;1702984;83;21412;-69
2022/03/19 00:46:26;;;;;;;187.05;69.65;;;;;;;-4.49;64.91;102186.61;1740094;81;21092;-70
2022/03/19 00:48:55;;;;;;;175.22;66.85;;;;;;;-4.52;65.03;102181.55;1715089;81;21170;-71
2022/03/19 00:51:22;;;;;;;188.30;72.45;;;;;;;-4.55;65.32;102183.17;1740545;81;21056;-68
2022/03/19 00:53:51;;;;;;;190.43;71.53;;;;;;;-4.59;65.41;102185.84;1708723;83;21005;-68
2022/03/19 00:56:19;;;;;;;189.43;70.47;;;;;;;-4.60;65.63;102181.44;1697331;83;20996;-68
2022/03/19 00:58:48;;;;;;;207.50;76.28;;;;;;;-4.60;65.77;102184.98;1739693;81;20893;-67
2022/03/19 01:01:18;;;;;;;210.60;76.45;;;;;;;-4.58;65.61;102188.86;1739084;81;21075;-67
2022/03/19 01:03:45;;;;;;;204.45;74.53;;;;;;;-4.59;65.44;102181.80;1713339;81;20997;-70
2022/03/19 01:06:16;;;;;;;216.78;78.47;;;;;;;-4.61;65.36;102183.80;1737579;81;20992;-68
2022/03/19 01:08:49;;;;;;;232.40;84.10;;;;;;;-4.67;65.52;102180.71;1738372;81;21055;-66
2022/03/19 01:11:23;;;;;;;249.15;87.60;;;;;;;-4.71;65.70;102183.87;1741394;82;21513;-68
2022/03/19 01:13:48;;;;;;;280.73;95.87;;;;;;;-4.74;65.83;102178.80;1715813;82;21062;-68
2022/03/19 01:16:19;;;;;;;285.07;100.27;;;;;;;-4.72;65.80;102185.70;1690020;83;20981;-69
2022/03/19 01:18:46;;;;;;;286.92;99.17;;;;;;;-4.73;65.64;102179.98;1681197;83;20977;-70
2022/03/19 01:21:14;;;;;;;345.07;120.28;;;;;;;-4.76;65.64;102179.78;1691955;83;21084;-70
2022/03/19 01:23:44;;;;;;;357.25;118.75;;;;;;;-4.82;65.85;102172.33;1701137;83;21060;-68
2022/03/19 01:26:11;;;;;;;339.08;114.32;;;;;;;-4.79;65.96;102180.09;1674809;83;21143;-67
2022/03/19 01:28:42;;;;;;;303.23;109.85;;;;;;;-4.81;65.95;102179.91;1692437;83;21045;-69
2022/03/19 01:31:11;;;;;;;305.55;107.83;;;;;;;-4.82;66.06;102180.89;1737543;81;20993;-68
2022/03/19 01:33:38;;;;;;;294.48;103.50;;;;;;;-4.83;66.09;102177.86;1739346;81;20953;-66
2022/03/19 01:36:09;;;;;;;319.10;109.27;;;;;;;-4.87;66.11;102177.80;1735176;81;21489;-68
2022/03/19 01:38:37;;;;;;;288.12;98.65;;;;;;;-4.90;66.19;102181.66;1739061;81;22138;-67
2022/03/19 01:41:06;;;;;;;288.62;102.65;;;;;;;-4.96;66.48;102171.48;1737326;82;21067;-69
2022/03/19 01:43:37;;;;;;;311.80;108.20;;;;;;;-4.98;66.55;102170.80;1695189;83;21009;-69
2022/03/19 01:46:04;;;;;;;316.50;107.85;;;;;;;-5.02;66.41;102178.33;1703375;83;21046;-71
2022/03/19 01:48:32;;;;;;;323.65;109.48;;;;;;;-5.04;66.33;102177.62;1691682;83;21092;-69
2022/03/19 01:50:58;;;;;;;302.25;108.32;;;;;;;-5.06;66.27;102178.27;1679176;83;21202;-70
2022/03/19 01:53:26;;;;;;;332.67;112.20;;;;;;;-5.10;66.41;102178.23;1688038;83;21088;-69
2022/03/19 01:55:57;;;;;;;315.85;114.50;;;;;;;-5.14;66.65;102177.69;1675046;84;20963;-70
2022/03/19 01:58:23;;;;;;;377.05;128.18;;;;;;;-5.13;66.57;102169.95;1675346;83;20974;-67
2022/03/19 02:00:50;;;;;;;374.85;127.45;;;;;;;-5.16;66.88;102168.42;1674528;84;21030;-70
2022/03/19 02:03:21;;;;;;;368.07;126.12;;;;;;;-5.18;67.07;102174.93;1676184;85;20953;-69
2022/03/19 02:05:51;;;;;;;360.30;123.38;;;;;;;-5.20;66.95;102172.91;1665512;84;21057;-71
2022/03/19 02:08:20;;;;;;;378.07;128.85;;;;;;;-5.24;67.08;102172.36;1670761;84;21095;-70
2022/03/19 02:10:49;;;;;;;378.98;122.70;;;;;;;-5.23;67.06;102170.50;1676135;85;20990;-70
2022/03/19 02:13:25;;;;;;;398.20;136.62;;;;;;;-5.23;66.86;102170.50;1664862;84;21215;-70
2022/03/19 02:15:58;;;;;;;419.77;140.20;;;;;;;-5.26;66.96;102175.69;1701479;82;22041;-69
2022/03/19 02:18:27;;;;;;;424.05;141.53;;;;;;;-5.29;67.16;102180.03;1662733;83;21077;-67
2022/03/19 02:20:57;;;;;;;430.83;143.82;;;;;;;-5.30;67.14;102182.34;1678328;84;21152;-69
2022/03/19 02:26:12;;;;;;;462.12;156.72;;;;;;;-5.31;67.27;102183.36;1704133;83;21078;-69
2022/03/19 02:28:41;;;;;;;443.87;146.72;;;;;;;-5.31;67.33;102176.64;1708174;82;21031;-72
2022/03/19 02:31:09;;;;;;;433.18;148.22;;;;;;;-5.28;67.33;102174.98;1707421;82;20979;-70
2022/03/19 02:33:37;;;;;;;439.60;141.07;;;;;;;-5.27;67.17;102182.91;1709838;81;21065;-70
2022/03/19 02:36:08;;;;;;;411.12;135.68;;;;;;;-5.27;67.12;102184.25;1665813;83;21179;-72
2022/03/19 02:38:36;;;;;;;403.25;137.72;;;;;;;-5.28;67.01;102181.70;1654676;85;21573;-70
2022/03/19 02:41:04;;;;;;;384.65;133.35;;;;;;;-5.29;67.03;102182.20;1658092;85;21819;-69
2022/03/19 02:43:33;;;;;;;394.18;135.68;;;;;;;-5.29;67.09;102182.72;1708581;82;21055;-68
2022/03/19 02:46:00;;;;;;;394.98;132.47;;;;;;;-5.32;67.27;102188.39;1710654;82;20972;-70
2022/03/19 02:48:30;;;;;;;413.40;138.85;;;;;;;-5.37;67.52;102187.47;1674269;84;21052;-69
2022/03/19 02:50:57;;;;;;;421.25;141.90;;;;;;;-5.39;67.68;102188.14;1674451;83;20986;-68
2022/03/19 02:53:28;;;;;;;414.15;138.18;;;;;;;-5.39;67.77;102186.80;1667654;84;21281;-72
2022/03/19 02:55:55;;;;;;;441.62;148.50;;;;;;;-5.40;67.77;102187.77;1710075;82;20933;-70
2022/03/19 02:58:22;;;;;;;424.20;143.57;;;;;;;-5.39;67.71;102188.14;1709633;81;21045;-72
2022/03/19 03:00:54;;;;;;;454.68;154.55;;;;;;;-5.39;67.75;102186.80;1710980;82;21153;-70
2022/03/19 03:03:21;;;;;;;471.95;161.37;;;;;;;-5.38;67.70;102184.45;1701055;81;20953;-70
2022/03/19 03:05:48;;;;;;;491.40;168.75;;;;;;;-5.36;67.68;102182.47;1710425;82;21403;-71
2022/03/19 03:08:15;;;;;;;531.60;183.85;;;;;;;-5.37;67.78;102182.09;1711787;82;21024;-70
2022/03/19 03:10:42;;;;;;;530.63;188.55;;;;;;;-5.37;68.00;102184.78;1710387;82;21007;-68
2022/03/19 03:13:09;;;;;;;520.42;180.87;;;;;;;-5.41;68.16;102184.75;1675166;83;20978;-69
2022/03/19 03:15:38;;;;;;;516.40;184.67;;;;;;;-5.48;68.34;102197.94;1679260;85;21061;-67
2022/03/19 03:18:05;;;;;;;515.02;185.75;;;;;;;-5.54;68.81;102197.16;1652608;85;22149;-71
2022/03/19 03:20:34;;;;;;;504.57;180.70;;;;;;;-5.51;69.16;102207.64;1687440;82;21782;-72
2022/03/19 03:23:04;;;;;;;462.42;158.63;;;;;;;-5.49;69.28;102205.63;1703524;82;21055;-70
2022/03/19 03:25:31;;;;;;;459.25;157.90;;;;;;;-5.44;69.20;102204.69;1708333;82;20992;-67
2022/03/19 03:28:01;;;;;;;447.85;151.47;;;;;;;-5.42;69.12;102201.36;1662895;85;21074;-70
2022/03/19 03:30:28;;;;;;;451.77;155.97;;;;;;;-5.37;68.98;102206.30;1663834;84;21257;-70
2022/03/19 03:32:57;;;;;;;480.45;164.47;;;;;;;-5.37;68.95;102202.27;1654896;85;20962;-71
2022/03/19 03:35:25;;;;;;;468.67;159.20;;;;;;;-5.36;68.97;102205.31;1654425;84;21148;-70
2022/03/19 03:37:54;;;;;;;485.43;173.68;;;;;;;-5.37;69.09;102209.84;1667515;85;21193;-68
2022/03/19 03:40:21;;;;;;;499.65;183.10;;;;;;;-5.36;69.12;102209.34;1665205;85;21073;-70
2022/03/19 03:42:49;;;;;;;519.58;185.10;;;;;;;-5.32;68.98;102207.22;1653495;83;22301;-70
2022/03/19 03:45:21;;;;;;;498.02;173.07;;;;;;;-5.30;68.92;102210.09;1657964;84;21040;-70
2022/03/19 03:47:49;;;;;;;487.98;168.43;;;;;;;-5.29;68.79;102209.61;1658955;84;21088;-69
2022/03/19 03:50:20;;;;;;;482.15;167.77;;;;;;;-5.29;68.64;102214.46;1672926;84;20982;-70
2022/03/19 03:52:48;;;;;;;509.22;175.53;;;;;;;-5.29;68.58;102211.77;1656433;84;20994;-68
2022/03/19 03:55:17;;;;;;;477.43;170.57;;;;;;;-5.29;68.58;102210.95;1653135;84;21275;-71
2022/03/19 03:57:44;;;;;;;495.20;181.47;;;;;;;-5.30;68.50;102213.27;1644047;85;21037;-69
2022/03/19 04:00:12;;;;;;;496.15;171.80;;;;;;;-5.34;68.29;102215.43;1705717;82;21437;-70
2022/03/19 04:02:43;;;;;;;497.95;169.13;;;;;;;-5.40;68.15;102216.86;1709721;82;22270;-70
2022/03/19 04:05:11;;;;;;;496.85;169.07;;;;;;;-5.48;68.21;102220.78;1707948;82;21445;-70
2022/03/19 04:07:39;;;;;;;487.38;169.53;;;;;;;-5.50;68.23;102224.10;1709747;82;21043;-71
2022/03/19 04:10:09;;;;;;;479.12;163.80;;;;;;;-5.51;68.24;102223.25;1674229;84;20958;-72
2022/03/19 04:12:43;;;;;;;457.50;164.25;;;;;;;-5.51;68.14;102229.14;1668630;83;21054;-72
2022/03/19 04:15:18;;;;;;;449.35;160.25;;;;;;;-5.54;68.05;102221.34;1686783;83;20997;-70
2022/03/19 04:17:45;;;;;;;490.40;167.70;;;;;;;-5.55;67.88;102223.69;1675151;83;21000;-71
2022/03/19 04:20:15;;;;;;;458.57;163.55;;;;;;;-5.56;67.92;102223.35;1691064;83;21048;-70
2022/03/19 04:22:45;;;;;;;468.63;157.95;;;;;;;-5.58;67.89;102223.98;1673704;83;21525;-69
2022/03/19 04:25:17;;;;;;;464.20;162.10;;;;;;;-5.61;68.09;102226.45;1707718;82;21103;-69
2022/03/19 04:27:51;;;;;;;464.70;163.15;;;;;;;-5.60;68.29;102225.97;1704004;82;21040;-68
2022/03/19 04:30:19;;;;;;;451.05;160.82;;;;;;;-5.59;68.31;102228.99;1707893;82;21592;-69
2022/03/19 04:32:50;;;;;;;428.62;155.63;;;;;;;-5.57;68.12;102221.64;1711783;82;21782;-68
2022/03/19 04:38:10;;;;;;;436.28;149.47;;;;;;;-5.50;68.16;102230.83;1666265;83;20966;-70
2022/03/19 04:40:40;;;;;;;413.87;143.60;;;;;;;-5.47;68.13;102226.98;1680155;83;21326;-69
2022/03/19 04:43:09;;;;;;;421.15;142.22;;;;;;;-5.46;68.13;102226.86;1708260;81;21465;-68
2022/03/19 04:45:43;;;;;;;421.12;146.53;;;;;;;-5.44;68.09;102235.61;1708902;82;21554;-68
2022/03/19 04:48:10;;;;;;;;;;;;;;;-5.41;68.04;102226.42;1713134;82;21028;-71
2022/03/19 04:50:43;;;;;;;451.22;152.95;;;;;;;-5.37;68.04;102231.34;1705559;82;20147;-70
2022/03/19 04:53:11;;;;;;;481.47;162.43;;;;;;;-5.30;68.07;102232.09;1709138;82;21055;-71
2022/03/19 04:55:38;;;;;;;466.75;161.30;;;;;;;-5.23;68.03;102243.09;1708098;82;20916;-69
2022/03/19 04:58:08;;;;;;;456.45;165.20;;;;;;;-5.18;67.90;102243.02;1709579;82;21036;-70
2022/03/19 05:00:37;;;;;;;486.15;166.65;;;;;;;-5.10;67.67;102239.58;1706947;82;20945;-69
2022/03/19 05:03:06;;;;;;;453.98;163.15;;;;;;;-5.05;67.59;102233.77;1708494;82;20960;-71
2022/03/19 05:05:34;;;;;;;476.52;173.70;;;;;;;-5.00;67.61;102238.20;1708609;82;20995;-69
2022/03/19 05:08:05;;;;;;;486.15;170.22;;;;;;;-4.93;67.62;102237.11;1679930;83;21142;-69
2022/03/19 05:13:18;;;;;;;455.13;161.75;;;;;;;-4.81;67.83;102240.45;1653411;85;21025;-66
2022/03/19 05:15:45;;;;;;;492.07;178.27;;;;;;;-4.77;67.92;102238.64;1664384;85;21443;-68
2022/03/19 05:18:13;;;;;;;503.15;178.65;;;;;;;-4.71;67.99;102243.93;1678686;84;21180;-71
2022/03/19 05:20:43;;;;;;;474.95;174.90;;;;;;;-4.65;68.38;102236.59;1660639;84;21044;-68
2022/03/19 05:23:09;;;;;;;496.30;183.87;;;;;;;-4.58;68.74;102241.35;1694001;82;21134;-72
2022/03/19 05:25:39;;;;;;;508.77;185.37;;;;;;;-4.55;69.03;102245.08;1671853;85;20899;-69
2022/03/19 05:28:08;;;;;;;495.80;175.70;;;;;;;-4.50;69.36;102245.99;1657593;84;21124;-68
2022/03/19 05:30:37;;;;;;;486.23;179.65;;;;;;;-4.44;69.68;102244.89;1688938;82;20955;-69
2022/03/19 05:33:05;;;;;;;455.67;168.97;;;;;;;-4.33;69.89;102256.44;1656630;84;21009;-68
2022/03/19 05:35:34;;;;;;;431.07;150.50;;;;;;;-4.23;69.99;102250.97;1647268;85;21084;-66
2022/03/19 05:38:05;;;;;;;358.20;135.10;;;;;;;-4.12;70.09;102254.77;1661893;85;21080;-67
2022/03/19 05:40:33;;;;;;;366.93;135.35;;;;;;;-3.99;70.11;102256.23;1689039;83;21626;-69
2022/03/19 05:43:00;;;;;;;303.07;112.55;;;;;;;-3.86;69.86;102254.47;1705346;82;21575;-69
2022/03/19 05:45:27;;;;;;;193.52;80.07;;;;;;;-3.74;69.12;102261.31;1714331;81;20972;-69
2022/03/19 05:47:56;;;;;;;197.22;78.35;;;;;;;-3.58;66.54;102265.11;1713462;82;21208;-70
2022/03/19 05:50:25;;;;;;;205.60;85.28;;;;;;;-3.39;65.88;102268.11;1686255;83;21393;-69
2022/03/19 05:52:54;;;;;;;195.00;76.75;;;;;;;-3.20;63.48;102270.23;1665818;83;21462;-69
2022/03/19 05:55:21;;;;;;;296.27;108.35;;;;;;;-3.02;63.08;102270.67;1705899;82;21008;-70
2022/03/19 05:57:50;;;;;;;361.35;122.17;;;;;;;-2.87;61.57;102271.76;1707404;82;21194;-71
2022/03/19 06:00:19;;;;;;;403.18;129.68;;;;;;;-2.74;59.24;102264.55;1710304;82;22398;-70
2022/03/19 06:02:46;;;;;;;368.55;121.57;;;;;;;-2.62;58.38;102271.84;1695544;81;21098;-68
2022/03/19 06:05:13;;;;;;;379.43;121.42;;;;;;;-2.52;56.47;102270.84;1683123;84;21466;-68
2022/03/19 06:07:41;;;;;;;423.82;135.90;;;;;;;-2.43;56.27;102267.66;1677470;84;21045;-69
2022/03/19 06:10:10;;;;;;;410.95;134.35;;;;;;;-2.36;55.69;102271.39;1686949;83;21036;-70
2022/03/19 06:12:40;;;;;;;439.35;137.57;;;;;;;-2.30;54.78;102270.72;1684124;83;20925;-72
2022/03/19 06:15:15;;;;;;;422.75;135.75;;;;;;;-2.23;54.50;102269.05;1706715;82;21062;-71
2022/03/19 06:17:51;;;;;;;461.60;148.87;;;;;;;-2.13;53.58;102276.17;1707348;82;20972;-68
2022/03/19 06:20:22;;;;;;;442.18;142.40;;;;;;;-2.04;52.35;102277.00;1689189;82;20964;-72
2022/03/19 06:22:49;;;;;;;446.95;142.00;;;;;;;-1.93;52.04;102278.54;1710277;82;21088;-70
2022/03/19 06:25:16;;;;;;;401.15;125.72;;;;;;;-1.82;51.58;102272.78;1712078;82;21472;-73
2022/03/19 06:27:43;;;;;;;377.05;109.85;;;;;;;-1.71;50.28;102272.97;1710528;82;20983;-72
2022/03/19 06:30:12;;;;;;;255.05;85.30;;;;;;;-1.60;50.42;102272.61;1710540;81;21169;-72
2022/03/19 06:32:41;;;;;;;228.45;74.87;;;;;;;-1.50;48.83;102274.30;1709455;81;21079;-70
2022/03/19 06:35:09;;;;;;;162.20;53.98;;;;;;;-1.39;49.31;102275.78;1709431;82;21051;-73
2022/03/19 06:37:39;;;;;;;115.72;45.55;;;;;;;-1.27;48.66;102273.06;1709108;82;21287;-71
2022/03/19 06:40:10;;;;;;;159.72;56.45;;;;;;;-1.15;47.45;102283.02;1709499;82;20956;-72
2022/03/19 06:42:37;;;;;;;166.70;57.48;;;;;;;-1.03;47.38;102277.22;1712371;82;20953;-73
2022/03/19 06:45:07;;;;;;;166.73;54.50;;;;;;;-0.91;46.74;102273.63;1708039;82;21178;-73
2022/03/19 06:47:34;;;;;;;146.60;52.93;;;;;;;-0.82;45.62;102284.73;1710229;82;21111;-73
2022/03/19 06:50:03;;;;;;;160.05;55.10;;;;;;;-0.75;45.62;102274.90;1711255;82;21631;-71
2022/03/19 06:52:35;;;;;;;160.72;54.03;;;;;;;-0.64;44.76;102272.83;1708862;81;20975;-70
2022/03/19 06:55:02;;;;;;;206.20;66.35;;;;;;;-0.56;44.95;102279.55;1711974;82;21401;-71
2022/03/19 06:57:29;;;;;;;213.47;71.62;;;;;;;-0.47;43.93;102276.79;1712147;81;20949;-69
2022/03/19 06:59:56;;;;;;;253.92;81.42;;;;;;;-0.42;43.79;102276.60;1713344;82;20989;-69
2022/03/19 07:02:24;;;;;;;268.80;85.47;;;;;;;-0.32;43.62;102271.45;1716048;81;21533;-72
2022/03/19 07:04:51;;;;;;;266.42;82.70;;;;;;;-0.19;43.79;102274.94;1715166;82;21469;-73
2022/03/19 07:07:19;;;;;;;267.25;87.60;;;;;;;-0.08;42.44;102275.02;1714999;81;21047;-72
2022/03/19 07:09:48;;;;;;;304.02;94.58;;;;;;;-0.02;41.61;102271.06;1712914;82;21480;-69
2022/03/19 07:12:20;;;;;;;326.52;102.35;;;;;;;0.07;41.57;102275.92;1691166;83;21484;-69
2022/03/19 07:14:51;;;;;;;321.50;100.80;;;;;;;0.18;41.41;102277.37;1668333;83;21140;-70
2022/03/19 07:17:18;;;;;;;297.10;96.17;;;;;;;0.25;41.21;102278.84;1709241;82;20916;-70
2022/03/19 07:19:45;;;;;;;302.13;98.20;;;;;;;0.31;40.80;102274.53;1708287;82;21454;-73
2022/03/19 07:22:13;;;;;;;290.65;90.50;;;;;;;0.36;41.35;102279.75;1661285;83;21001;-70
2022/03/19 07:24:43;;;;;;;199.00;63.58;;;;;;;0.52;41.73;102281.13;1689667;82;21014;-72
2022/03/19 07:27:09;;;;;;;206.75;69.40;;;;;;;0.67;40.89;102283.35;1715014;82;21134;-71
2022/03/19 07:29:36;;;;;;;212.70;71.28;;;;;;;0.79;40.60;102279.66;1711359;82;21154;-70
2022/03/19 07:32:06;;;;;;;245.35;76.33;;;;;;;0.88;40.38;102276.35;1710491;82;21031;-70
2022/03/19 07:34:39;;;;;;;243.42;73.52;;;;;;;0.97;39.14;102275.75;1704806;81;20964;-71
2022/03/19 07:37:08;;;;;;;156.95;48.92;;;;;;;0.99;39.52;102272.84;1690394;82;21075;-69
2022/03/19 07:39:34;;;;;;;94.90;30.65;;;;;;;1.07;39.57;102270.87;1713280;82;21753;-73
2022/03/19 07:42:06;;;;;;;118.50;40.20;;;;;;;1.20;39.77;102260.69;1710434;82;21035;-71
2022/03/19 07:44:33;;;;;;;125.90;38.40;;;;;;;1.37;39.88;102267.25;1709616;82;21154;-71
2022/03/19 07:47:00;;;;;;;54.05;21.68;;;;;;;1.51;38.91;102271.48;1669351;84;21073;-70
2022/03/19 07:49:39;;;;;;;82.60;26.15;;;;;;;1.62;38.97;102264.18;1664725;83;21011;-70
2022/03/19 07:52:09;;;;;;;67.40;22.52;;;;;;;1.76;38.82;102261.60;1668146;83;21034;-73
2022/03/19 07:54:38;;;;;;;54.95;20.15;;;;;;;1.90;38.76;102252.56;1672162;84;21070;-72
2022/03/19 07:57:10;;;;;;;49.38;19.92;;;;;;;1.98;37.17;102261.63;1674947;84;21458;-68
2022/03/19 07:59:46;;;;;;;53.33;19.25;;;;;;;2.00;37.33;102260.39;1645341;84;21435;-72
2022/03/19 08:02:13;;;;;;;47.30;20.80;;;;;;;2.10;37.64;102263.31;1673398;85;21442;-71
2022/03/19 08:04:43;;;;;;;33.40;14.18;;;;;;;2.26;37.87;102264.89;1677386;85;21552;-73
2022/03/19 08:07:12;;;;;;;29.27;12.25;;;;;;;2.40;37.22;102268.57;1668811;85;21078;-70
2022/03/19 08:09:40;;;;;;;31.90;13.55;;;;;;;2.52;37.13;102272.95;1663847;85;21030;-71
2022/03/19 08:12:10;;;;;;;37.08;14.68;;;;;;;2.61;36.25;102268.20;1665067;85;20926;-70
2022/03/19 08:14:39;;;;;;;34.67;12.70;;;;;;;2.70;36.26;102262.06;1671773;85;20923;-71
2022/03/19 08:17:06;;;;;;;21.30;11.05;;;;;;;2.77;35.81;102254.78;1662057;85;21284;-73
2022/03/19 08:19:35;;;;;;;18.20;8.90;;;;;;;2.79;34.65;102250.83;1668248;85;21005;-72
2022/03/19 08:22:03;;;;;;;21.07;9.78;;;;;;;2.83;34.09;102258.09;1651075;86;21482;-72
2022/03/19 08:24:30;;;;;;;22.02;9.98;;;;;;;2.88;34.42;102262.92;1673349;84;21542;-70
2022/03/19 08:26:57;;;;;;;28.85;9.48;;;;;;;3.00;34.65;102257.75;1664089;85;21138;-72
2022/03/19 08:29:28;;;;;;;21.15;8.95;;;;;;;3.13;34.61;102256.45;1652913;85;20999;-72
2022/03/19 08:31:55;;;;;;;13.20;7.10;;;;;;;3.29;34.56;102260.69;1652972;85;20955;-71
2022/03/19 08:34:23;;;;;;;18.25;7.83;;;;;;;3.38;33.39;102255.91;1657638;85;21158;-71
2022/03/19 08:36:55;;;;;;;15.63;7.08;;;;;;;3.39;33.04;102257.61;1654691;85;20997;-69
2022/03/19 08:42:09;;;;;;;15.25;7.15;;;;;;;3.26;32.49;102257.02;1660006;84;21272;-73
2022/03/19 08:44:36;;;;;;;13.88;7.35;;;;;;;3.30;32.79;102258.81;1643528;85;20955;-72
2022/03/19 08:47:03;;;;;;;16.90;7.58;;;;;;;3.22;32.17;102253.55;1646605;85;20994;-71
2022/03/19 08:49:33;;;;;;;13.35;7.45;;;;;;;3.27;32.34;102245.60;1664529;85;20982;-73
2022/03/19 08:52:01;;;;;;;16.95;7.37;;;;;;;3.33;32.16;102248.02;1655188;85;21030;-69
2022/03/19 08:54:29;;;;;;;15.68;7.30;;;;;;;3.37;30.96;102243.33;1656125;85;21175;-73
2022/03/19 08:56:56;;;;;;;10.45;5.97;;;;;;;3.36;31.62;102253.90;1669619;85;21163;-72
2022/03/19 08:59:23;;;;;;;21.70;7.22;;;;;;;3.46;30.70;102246.72;1666702;85;21053;-70
2022/03/19 09:01:52;;;;;;;17.85;7.92;;;;;;;3.44;30.87;102252.89;1665318;85;21555;-71
2022/03/19 09:04:19;;;;;;;21.65;8.58;;;;;;;3.35;30.20;102250.02;1668152;85;20977;-72
2022/03/19 09:06:46;;;;;;;15.32;8.73;;;;;;;3.33;30.47;102249.38;1669329;85;21283;-71
2022/03/19 09:09:17;;;;;;;19.07;8.58;;;;;;;3.36;29.81;102249.81;1660676;85;21069;-73
2022/03/19 09:11:51;;;;;;;15.40;8.48;;;;;;;3.35;30.57;102248.14;1664901;84;21489;-71
2022/03/19 09:14:20;;;;;;;22.50;9.13;;;;;;;3.52;30.24;102249.98;1662659;85;21081;-73
2022/03/19 09:16:47;;;;;;;20.08;9.40;;;;;;;3.61;30.38;102252.00;1656500;85;20898;-73
2022/03/19 09:19:14;;;;;;;18.87;9.50;;;;;;;3.76;31.07;102249.61;1671882;85;21628;-73
2022/03/19 09:21:46;;;;;;;17.23;9.38;;;;;;;3.97;31.34;102246.39;1673844;85;21010;-72
2022/03/19 09:24:15;;;;;;;15.10;7.90;;;;;;;4.22;31.49;102251.22;1667236;85;20988;-73
2022/03/19 09:26:45;;;;;;;20.57;7.85;;;;;;;4.45;31.54;102261.70;1653199;86;21028;-69
2022/03/19 09:29:16;;;;;;;16.07;7.80;;;;;;;4.66;31.12;102258.97;1671877;85;20994;-70
2022/03/19 09:31:46;;;;;;;17.12;7.83;;;;;;;4.69;30.58;102258.53;1652302;85;21009;-71
2022/03/19 09:34:21;;;;;;;20.97;7.70;;;;;;;4.74;30.38;102255.46;1677881;84;21133;-72
2022/03/19 09:36:49;;;;;;;16.35;8.45;;;;;;;4.76;29.25;102255.24;1657068;84;21129;-71
2022/03/19 09:39:19;;;;;;;12.58;7.08;;;;;;;4.61;29.30;102254.13;1657308;85;21523;-69
2022/03/19 09:41:47;;;;;;;21.25;8.35;;;;;;;4.65;29.30;102253.17;1664635;85;21005;-69
2022/03/19 09:44:17;;;;;;;14.18;7.05;;;;;;;4.54;28.68;102256.05;1669738;84;21546;-74
2022/03/19 09:46:47;;;;;;;12.68;7.70;;;;;;;4.47;29.37;102253.33;1710261;83;21000;-71
2022/03/19 09:49:19;;;;;;;12.82;7.50;;;;;;;4.38;28.55;102251.33;1698691;83;20985;-70
2022/03/19 09:51:57;;;;;;;15.08;8.23;;;;;;;4.27;29.28;102240.51;1670258;84;20945;-73
2022/03/19 09:54:22;;;;;;;14.98;7.33;;;;;;;4.36;30.15;102246.59;1669009;84;21434;-72
2022/03/19 09:56:50;;;;;;;15.48;7.67;;;;;;;4.59;30.90;102238.50;1669848;85;21780;-70
2022/03/19 09:59:17;;;;;;;14.00;6.80;;;;;;;4.79;30.71;102236.23;1677368;85;20954;-72
2022/03/19 10:01:49;;;;;;;14.95;7.10;;;;;;;4.99;30.54;102236.17;1672736;85;21002;-69
2022/03/19 10:04:20;;;;;;;18.92;8.48;;;;;;;5.15;30.50;102233.50;1700570;82;21118;-70
2022/03/19 10:09:48;;;;;;;16.05;7.70;;;;;;;5.24;30.34;102236.80;1707768;82;21223;-70
2022/03/19 10:12:21;;;;;;;21.75;8.13;;;;;;;5.26;28.52;102240.16;1709395;82;20989;-71
2022/03/19 10:14:53;;;;;;;15.50;7.00;;;;;;;4.81;28.70;102230.03;1707211;82;20933;-72
2022/03/19 10:17:32;;;;;;;11.80;6.75;;;;;;;4.69;29.23;102222.48;1662852;85;21601;-71
2022/03/19 10:20:11;;;;;;;15.53;6.83;;;;;;;4.74;29.50;102219.13;1704669;82;20959;-72
2022/03/19 10:22:41;;;;;;;15.48;6.87;;;;;;;4.91;29.41;102228.22;1659439;85;21223;-71
2022/03/19 10:25:13;;;;;;;13.43;7.17;;;;;;;4.89;29.17;102212.55;1671309;85;21034;-69
2022/03/19 10:27:45;;;;;;;12.98;7.58;;;;;;;4.87;29.25;102221.81;1650687;85;21501;-69
2022/03/19 10:30:16;;;;;;;19.80;7.87;;;;;;;4.75;29.27;102218.91;1667093;85;21117;-70
2022/03/19 10:32:54;;;;;;;17.30;8.30;;;;;;;4.83;30.04;102219.19;1658623;83;22236;-70
2022/03/19 10:35:38;;;;;;;11.38;6.47;;;;;;;5.07;30.36;102209.96;1662855;85;21168;-70
2022/03/19 10:38:28;;;;;;;15.03;7.03;;;;;;;5.38;30.42;102208.02;1669814;85;21029;-68
2022/03/19 10:40:53;;;;;;;15.38;6.67;;;;;;;5.67;30.01;102201.11;1654796;85;20979;-71
2022/03/19 10:43:24;;;;;;;12.90;6.35;;;;;;;5.90;30.03;102198.30;1655488;85;20934;-72
2022/03/19 10:45:57;;;;;;;14.35;7.62;;;;;;;6.07;29.68;102195.05;1642612;84;20969;-71
2022/03/19 10:48:30;;;;;;;;;;;;;;;6.12;29.11;102193.86;1662579;85;21226;-71
2022/03/19 10:51:02;;;;;;;9.85;5.83;;;;;;;6.01;28.04;102195.38;1652238;85;20152;-68
2022/03/19 10:53:29;;;;;;;17.82;7.53;;;;;;;5.95;27.95;102197.66;1676210;85;21554;-69
2022/03/19 10:55:58;;;;;;;12.37;6.08;;;;;;;5.75;26.64;102195.89;1654639;85;21400;-71
2022/03/19 10:58:27;;;;;;;12.53;6.92;;;;;;;5.39;27.57;102190.57;1655273;85;20939;-69
2022/03/19 11:00:54;;;;;;;15.38;7.45;;;;;;;5.43;28.57;102187.69;1652626;85;21865;-70
2022/03/19 11:03:27;;;;;;;11.93;6.40;;;;;;;5.69;28.97;102187.21;1657254;85;21041;-69
2022/03/19 11:06:03;;;;;;;12.60;6.05;;;;;;;5.94;28.12;102185.01;1651195;85;20963;-72
2022/03/19 11:08:38;;;;;;;14.73;6.22;;;;;;;6.08;28.64;102188.51;1674556;84;20982;-69
2022/03/19 11:11:21;;;;;;;10.93;5.62;;;;;;;6.28;27.94;102186.10;1667928;84;21009;-68
2022/03/19 11:13:49;;;;;;;11.28;5.90;;;;;;;6.25;27.05;102181.93;1670630;85;21646;-70
2022/03/19 11:16:22;;;;;;;12.07;5.33;;;;;;;6.11;26.63;102183.95;1657286;84;20965;-69
2022/03/19 11:18:54;;;;;;;11.65;5.75;;;;;;;5.89;26.57;102182.95;1654332;85;21030;-71
2022/03/19 11:21:26;;;;;;;14.23;7.10;;;;;;;5.65;25.92;102179.97;1658393;85;21571;-69
2022/03/19 11:24:08;;;;;;;16.23;5.97;;;;;;;5.33;26.25;102171.77;1667673;85;21154;-69
2022/03/19 11:26:35;;;;;;;10.65;5.53;;;;;;;5.33;26.55;102173.13;1660349;85;21679;-72
2022/03/19 11:29:07;;;;;;;12.95;5.40;;;;;;;5.37;26.80;102168.91;1638060;85;20962;-70
2022/03/19 11:31:35;;;;;;;10.28;5.45;;;;;;;5.45;26.42;102173.27;1667081;85;21009;-71